createdAt,value
2022-10-13T00:01:55.937Z,3.12
2022-10-13T00:04:42.928Z,3.09
2022-10-13T00:07:22.948Z,3.09
2022-10-13T00:10:16.925Z,3.11
2022-10-13T00:13:03.918Z,3.09
2022-10-13T00:15:38.088Z,3.10
2022-10-13T00:18:24.928Z,3.13
2022-10-13T00:20:58.025Z,3.09
2022-10-13T00:23:45.933Z,3.08
2022-10-13T00:26:27.920Z,3.05
2022-10-13T00:29:21.939Z,3.04
2022-10-13T00:32:08.929Z,3.00
2022-10-13T00:34:44.009Z,2.95
2022-10-13T00:37:31.934Z,2.90
2022-10-13T00:40:05.010Z,2.87
2022-10-13T00:42:51.929Z,2.82
2022-10-13T00:45:37.919Z,2.80
2022-10-13T00:48:34.951Z,2.75
2022-10-13T00:51:08.010Z,2.74
2022-10-13T00:53:55.934Z,2.76
2022-10-13T00:56:31.135Z,2.74
2022-10-13T00:59:29.960Z,2.72
2022-10-13T01:02:05.031Z,2.74
2022-10-13T01:04:53.988Z,2.72
2022-10-13T01:07:27.136Z,2.65
2022-10-13T01:10:13.948Z,2.58
2022-10-13T01:13:01.016Z,2.50
2022-10-13T01:16:07.944Z,2.44
2022-10-13T01:18:47.029Z,2.42
2022-10-13T01:21:41.939Z,2.37
2022-10-13T01:24:59.965Z,2.37
2022-10-13T01:28:11.981Z,2.35
2022-10-13T01:31:04.951Z,2.32
2022-10-13T01:33:52.025Z,2.32
2022-10-13T01:37:07.976Z,2.35
2022-10-13T01:39:54.284Z,2.33
2022-10-13T01:42:53.952Z,2.32
2022-10-13T01:45:31.036Z,2.32
2022-10-13T01:48:17.964Z,2.26
2022-10-13T01:50:52.036Z,2.21
2022-10-13T01:53:38.980Z,2.18
2022-10-13T01:56:12.115Z,2.14
2022-10-13T01:59:02.968Z,2.13
2022-10-13T02:01:46.462Z,2.15
2022-10-13T02:04:42.980Z,2.09
2022-10-13T02:07:28.124Z,2.03
2022-10-13T02:10:34.962Z,2.05
2022-10-13T02:13:17.983Z,2.03
2022-10-13T02:16:14.954Z,2.06
2022-10-13T02:19:03.995Z,2.06
2022-10-13T02:21:38.078Z,2.04
2022-10-13T02:24:24.988Z,2.02
2022-10-13T02:26:59.077Z,2.00
2022-10-13T02:29:56.973Z,1.96
2022-10-13T02:32:31.042Z,1.93
2022-10-13T02:35:17.967Z,1.98
2022-10-13T02:37:51.069Z,2.03
2022-10-13T02:40:37.976Z,2.04
2022-10-13T02:43:17.985Z,2.04
2022-10-13T02:46:04.976Z,2.05
2022-10-13T02:48:44.968Z,2.06
2022-10-13T02:51:40.326Z,2.08
2022-10-13T02:54:26.990Z,2.09
2022-10-13T02:57:06.998Z,2.09
2022-10-13T02:59:53.987Z,2.12
2022-10-13T03:02:33.965Z,2.11
2022-10-13T03:05:28.006Z,2.11
2022-10-13T03:08:14.996Z,2.11
2022-10-13T03:10:48.067Z,2.07
2022-10-13T03:13:34.983Z,2.06
2022-10-13T03:16:08.098Z,2.03
2022-10-13T03:18:55.003Z,2.05
2022-10-13T03:21:35.020Z,2.06
2022-10-13T03:24:29.018Z,2.06
2022-10-13T03:27:22.997Z,2.05
2022-10-13T03:30:18.017Z,2.05
2022-10-13T03:33:04.980Z,2.05
2022-10-13T03:35:38.071Z,2.02
2022-10-13T03:38:25.010Z,2.00
2022-10-13T03:40:58.062Z,2.02
2022-10-13T03:43:46.004Z,2.02
2022-10-13T03:46:28.014Z,2.02
2022-10-13T03:49:25.003Z,2.02
2022-10-13T03:52:12.009Z,2.01
2022-10-13T03:54:45.051Z,2.03
2022-10-13T03:57:32.024Z,2.06
2022-10-13T04:00:08.680Z,2.08
2022-10-13T04:02:56.028Z,2.09
2022-10-13T04:05:35.999Z,2.11
2022-10-13T04:08:23.028Z,2.08
2022-10-13T04:11:12.062Z,2.05
2022-10-13T04:14:06.007Z,2.03
2022-10-13T04:17:00.012Z,2.03
2022-10-13T04:19:47.003Z,1.99
2022-10-13T04:22:27.030Z,1.92
2022-10-13T04:25:15.013Z,1.86
2022-10-13T04:27:55.015Z,1.86
2022-10-13T04:30:49.655Z,1.90
2022-10-13T04:33:37.132Z,1.91
2022-10-13T04:36:12.084Z,1.88
2022-10-13T04:39:00.021Z,1.86
2022-10-13T04:41:33.110Z,1.87
2022-10-13T04:44:20.017Z,1.88
2022-10-13T04:47:00.033Z,1.88
2022-10-13T04:49:54.020Z,1.84
2022-10-13T04:52:42.014Z,1.82
2022-10-13T04:55:22.028Z,1.83
2022-10-13T04:58:09.017Z,1.84
2022-10-13T05:00:42.498Z,1.81
2022-10-13T05:03:29.046Z,1.80
2022-10-13T05:06:02.148Z,1.80
2022-10-13T05:08:49.031Z,1.74
2022-10-13T05:11:22.280Z,1.73
2022-10-13T05:14:09.055Z,1.70
2022-10-13T05:16:49.019Z,1.71
2022-10-13T05:19:43.055Z,1.75
2022-10-13T05:22:37.034Z,1.78
2022-10-13T05:25:33.803Z,1.83
2022-10-13T05:28:28.074Z,1.86
2022-10-13T05:31:31.042Z,1.87
2022-10-13T05:34:18.068Z,1.88
2022-10-13T05:36:51.169Z,1.89
2022-10-13T05:39:38.052Z,1.88
2022-10-13T05:42:18.359Z,1.86
2022-10-13T05:45:05.039Z,1.84
2022-10-13T05:47:45.059Z,1.82
2022-10-13T05:50:32.056Z,1.79
2022-10-13T05:53:13.122Z,1.81
2022-10-13T05:56:13.052Z,1.84
2022-10-13T05:59:13.066Z,1.90
2022-10-13T06:02:07.063Z,1.97
2022-10-13T06:04:57.052Z,2.10
2022-10-13T06:07:38.093Z,2.21
2022-10-13T06:10:32.056Z,2.38
2022-10-13T06:13:19.078Z,2.51
2022-10-13T06:15:52.112Z,2.64
2022-10-13T06:18:39.081Z,2.81
2022-10-13T06:21:13.510Z,2.97
2022-10-13T06:24:00.045Z,3.10
2022-10-13T06:26:40.089Z,3.17
2022-10-13T06:29:34.044Z,3.29
2022-10-13T06:32:28.055Z,3.40
2022-10-13T06:35:15.064Z,3.50
2022-10-13T06:37:48.732Z,3.63
2022-10-13T06:40:35.077Z,3.76
2022-10-13T06:43:08.148Z,3.86
2022-10-13T06:45:55.079Z,3.94
2022-10-13T06:48:28.192Z,4.00
2022-10-13T06:51:18.072Z,4.08
2022-10-13T06:53:51.219Z,4.15
2022-10-13T06:56:38.057Z,4.21
2022-10-13T06:59:18.074Z,4.23
2022-10-13T07:02:12.085Z,4.26
2022-10-13T07:05:06.122Z,4.24
2022-10-13T07:08:01.070Z,4.27
2022-10-13T07:10:48.081Z,4.27
2022-10-13T07:13:30.376Z,4.33
2022-10-13T07:16:19.105Z,4.40
2022-10-13T07:18:54.204Z,4.47
2022-10-13T07:21:41.099Z,4.53
2022-10-13T07:24:21.092Z,4.60
2022-10-13T07:27:15.082Z,4.65
2022-10-13T07:30:09.085Z,4.71
2022-10-13T07:32:56.090Z,4.81
2022-10-13T07:35:36.073Z,4.92
2022-10-13T07:38:23.111Z,4.99
2022-10-13T07:41:03.098Z,5.08
2022-10-13T07:43:57.130Z,5.14
2022-10-13T07:46:51.096Z,5.23
2022-10-13T07:49:45.102Z,5.34
2022-10-13T07:52:39.109Z,5.47
2022-10-13T07:55:33.104Z,5.57
2022-10-13T07:58:27.097Z,5.68
2022-10-13T08:01:14.200Z,5.82
2022-10-13T08:03:50.392Z,5.94
2022-10-13T08:06:37.142Z,6.03
2022-10-13T08:09:11.431Z,6.13
2022-10-13T08:12:00.882Z,6.27
2022-10-13T08:14:36.260Z,6.42
2022-10-13T08:17:23.303Z,6.58
2022-10-13T08:19:57.170Z,6.78
2022-10-13T08:22:44.123Z,6.95
2022-10-13T08:25:24.104Z,7.10
2022-10-13T08:28:19.172Z,7.27
2022-10-13T08:31:13.283Z,7.44
2022-10-13T08:34:07.090Z,7.67
2022-10-13T08:36:54.114Z,7.87
2022-10-13T08:39:36.110Z,8.05
2022-10-13T08:42:26.145Z,8.24
2022-10-13T08:48:21.116Z,8.59
2022-10-13T08:50:58.192Z,8.69
2022-10-13T08:53:50.109Z,8.79
2022-10-13T08:56:31.344Z,8.95
2022-10-13T08:59:23.130Z,9.13
2022-10-13T09:02:00.502Z,9.28
2022-10-13T09:04:50.125Z,9.43
2022-10-13T09:07:51.163Z,9.64
2022-10-13T09:10:45.117Z,9.82
2022-10-13T09:13:39.148Z,9.97
2022-10-13T09:16:41.132Z,10.01
2022-10-13T09:19:43.132Z,10.10
2022-10-13T09:22:37.302Z,10.10
2022-10-13T09:25:28.125Z,10.17
2022-10-13T09:28:07.213Z,10.25
2022-10-13T09:30:55.150Z,10.36
2022-10-13T09:33:31.213Z,10.40
2022-10-13T09:36:24.162Z,10.49
2022-10-13T09:39:26.138Z,10.55
2022-10-13T09:42:34.167Z,10.66
2022-10-13T09:45:26.120Z,10.76
2022-10-13T09:48:28.145Z,10.87
2022-10-13T09:51:45.144Z,10.82
2022-10-13T09:54:53.145Z,10.77
2022-10-13T09:57:56.134Z,10.85
2022-10-13T10:00:32.249Z,10.89
2022-10-13T10:03:17.150Z,10.89
2022-10-13T10:05:58.194Z,10.87
2022-10-13T10:09:05.238Z,10.83
2022-10-13T10:11:54.151Z,10.81
2022-10-13T10:14:50.163Z,10.84
2022-10-13T10:17:54.163Z,10.87
2022-10-13T10:21:01.191Z,10.98
2022-10-13T10:23:49.262Z,11.04
2022-10-13T10:26:50.180Z,11.11
2022-10-13T10:30:13.204Z,11.21
2022-10-13T10:33:21.178Z,11.33
2022-10-13T10:36:23.162Z,11.43
2022-10-13T10:39:04.254Z,11.54
2022-10-13T10:42:27.172Z,11.71
2022-10-13T10:45:09.201Z,11.81
2022-10-13T10:48:08.188Z,11.89
2022-10-13T10:51:04.171Z,11.95
2022-10-13T10:54:00.182Z,11.98
2022-10-13T10:56:55.242Z,12.00
2022-10-13T10:59:57.184Z,11.97
2022-10-13T11:02:33.252Z,11.97
2022-10-13T11:05:21.187Z,12.05
2022-10-13T11:07:54.302Z,12.23
2022-10-13T11:10:41.170Z,12.34
2022-10-13T11:13:23.376Z,12.43
2022-10-13T11:16:44.180Z,12.60
2022-10-13T11:19:43.196Z,12.68
2022-10-13T11:22:42.184Z,12.74
2022-10-13T11:25:48.200Z,12.83
2022-10-13T11:28:27.390Z,12.86
2022-10-13T11:31:20.198Z,12.92
2022-10-13T11:33:53.372Z,12.95
2022-10-13T11:37:02.200Z,12.95
2022-10-13T11:40:19.266Z,13.01
2022-10-13T11:43:30.188Z,13.04
2022-10-13T11:46:29.201Z,13.13
2022-10-13T11:49:53.194Z,13.12
2022-10-13T11:53:29.206Z,13.14
2022-10-13T11:56:27.191Z,13.12
2022-10-13T11:59:07.245Z,13.13
2022-10-13T12:01:54.196Z,13.12
2022-10-13T12:04:36.221Z,13.15
2022-10-13T12:07:24.192Z,13.14
2022-10-13T12:10:03.292Z,13.13
2022-10-13T12:12:56.225Z,13.10
2022-10-13T12:15:40.306Z,13.07
2022-10-13T12:18:34.246Z,13.05
2022-10-13T12:21:18.217Z,13.04
2022-10-13T12:24:23.250Z,13.01
2022-10-13T12:27:35.199Z,12.96
2022-10-13T12:30:29.184Z,12.92
2022-10-13T12:33:11.222Z,12.89
2022-10-13T12:35:58.254Z,12.83
2022-10-13T12:38:31.310Z,12.78
2022-10-13T12:41:18.234Z,12.72
2022-10-13T12:43:52.343Z,12.67
2022-10-13T12:46:53.241Z,12.63
2022-10-13T12:49:48.228Z,12.60
2022-10-13T12:52:35.243Z,12.55
2022-10-13T12:55:15.271Z,12.54
2022-10-13T12:58:09.234Z,12.51
2022-10-13T13:01:34.266Z,12.51
2022-10-13T13:04:22.419Z,12.53
2022-10-13T13:07:11.226Z,12.53
2022-10-13T13:09:44.361Z,12.53
2022-10-13T13:12:34.237Z,12.51
2022-10-13T13:15:50.285Z,12.50
2022-10-13T13:18:50.238Z,12.50
2022-10-13T13:21:44.334Z,12.53
2022-10-13T13:24:39.936Z,12.56
2022-10-13T13:27:38.243Z,12.58
2022-10-13T13:30:34.261Z,12.62
2022-10-13T13:33:21.237Z,12.66
2022-10-13T13:35:54.316Z,12.69
2022-10-13T13:38:41.257Z,12.71
2022-10-13T13:41:24.281Z,12.74
2022-10-13T13:44:11.259Z,12.77
2022-10-13T13:46:57.206Z,12.78
2022-10-13T13:49:44.256Z,12.81
2022-10-13T13:52:24.266Z,12.84
2022-10-13T13:55:18.264Z,12.84
2022-10-13T13:58:12.259Z,12.83
2022-10-13T14:01:06.278Z,12.81
2022-10-13T14:03:53.284Z,12.78
2022-10-13T14:06:27.559Z,12.75
2022-10-13T14:09:14.277Z,12.75
2022-10-13T14:11:47.332Z,12.77
2022-10-13T14:14:37.275Z,12.76
2022-10-13T14:17:18.275Z,12.75
2022-10-13T14:20:05.300Z,12.72
2022-10-13T14:22:38.351Z,12.71
2022-10-13T14:25:25.257Z,12.72
2022-10-13T14:28:05.418Z,12.78
2022-10-13T14:30:52.276Z,12.78
2022-10-13T14:33:25.377Z,12.75
2022-10-13T14:36:14.303Z,12.70
2022-10-13T14:38:47.407Z,12.64
2022-10-13T14:41:34.285Z,12.60
2022-10-13T14:44:14.267Z,12.59
2022-10-13T14:47:01.303Z,12.57
2022-10-13T14:49:34.364Z,12.56
2022-10-13T14:52:21.271Z,12.52
2022-10-13T14:55:01.301Z,12.49
2022-10-13T14:57:48.268Z,12.47
2022-10-13T15:00:22.378Z,12.43
2022-10-13T15:03:09.423Z,12.39
2022-10-13T15:05:42.448Z,12.38
2022-10-13T15:08:29.304Z,12.34
2022-10-13T15:11:09.361Z,12.32
2022-10-13T15:13:56.321Z,12.29
2022-10-13T15:16:38.380Z,12.25
2022-10-13T15:19:25.305Z,12.20
2022-10-13T15:22:05.315Z,12.15
2022-10-13T15:24:59.302Z,12.09
2022-10-13T15:27:53.318Z,12.04
2022-10-13T15:30:47.294Z,11.97
2022-10-13T15:33:34.325Z,11.91
2022-10-13T15:36:15.326Z,11.82
2022-10-13T15:39:02.308Z,11.73
2022-10-13T15:41:35.379Z,11.64
2022-10-13T15:44:23.310Z,11.56
2022-10-13T15:47:08.203Z,11.52
2022-10-13T15:49:55.327Z,11.44
2022-10-13T15:52:33.695Z,11.40
2022-10-13T15:55:21.317Z,11.35
2022-10-13T15:57:54.477Z,11.31
2022-10-13T16:00:41.414Z,11.25
2022-10-13T16:03:27.307Z,11.21
2022-10-13T16:06:23.294Z,11.16
2022-10-13T16:09:10.332Z,11.10
2022-10-13T16:11:43.419Z,11.03
2022-10-13T16:14:30.342Z,10.94
2022-10-13T16:17:04.967Z,10.84
2022-10-13T16:19:51.350Z,10.76
2022-10-13T16:22:31.346Z,10.66
2022-10-13T16:25:18.371Z,10.56
2022-10-13T16:27:51.396Z,10.48
2022-10-13T16:30:38.366Z,10.39
2022-10-13T16:33:11.418Z,10.32
2022-10-13T16:35:58.325Z,10.25
2022-10-13T16:38:31.414Z,10.19
2022-10-13T16:41:21.353Z,10.14
2022-10-13T16:44:02.370Z,10.08
2022-10-13T16:46:56.359Z,10.00
2022-10-13T16:49:43.358Z,9.92
2022-10-13T16:52:16.407Z,9.85
2022-10-13T16:55:03.363Z,9.80
2022-10-13T16:57:44.363Z,9.73
2022-10-13T17:00:31.364Z,9.62
2022-10-13T17:03:04.424Z,9.57
2022-10-13T17:05:51.382Z,9.52
2022-10-13T17:08:31.377Z,9.46
2022-10-13T17:11:36.362Z,9.37
2022-10-13T17:14:23.352Z,9.29
2022-10-13T17:17:03.370Z,9.24
2022-10-13T17:19:50.348Z,9.20
2022-10-13T17:22:30.381Z,9.15
2022-10-13T17:25:24.361Z,9.05
2022-10-13T17:28:18.411Z,8.98
2022-10-13T17:31:10.375Z,8.91
2022-10-13T17:33:51.362Z,8.85
2022-10-13T17:36:39.390Z,8.73
2022-10-13T17:39:17.675Z,8.63
2022-10-13T17:42:04.382Z,8.58
2022-10-13T17:44:44.370Z,8.54
2022-10-13T17:47:31.348Z,8.53
2022-10-13T17:50:04.452Z,8.50
2022-10-13T17:52:51.393Z,8.49
2022-10-13T17:55:31.376Z,8.48
2022-10-13T17:58:18.390Z,8.45
2022-10-13T18:01:12.298Z,8.40
2022-10-13T18:04:05.382Z,8.32
2022-10-13T18:06:47.583Z,8.26
2022-10-13T18:09:30.374Z,8.22
2022-10-13T18:12:10.388Z,8.19
2022-10-13T18:14:50.409Z,8.15
2022-10-13T18:17:44.386Z,8.09
2022-10-13T18:20:31.369Z,8.02
2022-10-13T18:23:12.428Z,7.98
2022-10-13T18:25:59.383Z,7.97
2022-10-13T18:28:43.502Z,7.93
2022-10-13T18:31:36.509Z,7.86
2022-10-13T18:34:12.526Z,7.81
2022-10-13T18:37:03.377Z,7.78
2022-10-13T18:39:43.397Z,7.73
2022-10-13T18:42:30.386Z,7.67
2022-10-13T18:45:03.596Z,7.63
2022-10-13T18:47:50.412Z,7.57
2022-10-13T18:50:23.472Z,7.54
2022-10-13T18:53:10.387Z,7.51
2022-10-13T18:55:43.868Z,7.48
2022-10-13T18:58:30.399Z,7.44
2022-10-13T19:01:23.462Z,7.42
2022-10-13T19:04:19.401Z,7.39
2022-10-13T19:07:06.421Z,7.32
2022-10-13T19:09:39.470Z,7.31
2022-10-13T19:12:26.425Z,7.28
2022-10-13T19:14:59.500Z,7.26
2022-10-13T19:17:46.444Z,7.21
2022-10-13T19:20:22.529Z,7.18
2022-10-13T19:23:09.426Z,7.15
2022-10-13T19:25:48.481Z,7.12
2022-10-13T19:28:42.466Z,7.08
2022-10-13T19:31:38.401Z,7.03
2022-10-13T19:34:32.409Z,6.99
2022-10-13T19:37:19.912Z,6.94
2022-10-13T19:39:53.510Z,6.91
2022-10-13T19:42:40.444Z,6.87
2022-10-13T19:45:20.409Z,6.85
2022-10-13T19:48:14.516Z,6.84
2022-10-13T19:51:08.437Z,6.82
2022-10-13T19:53:55.448Z,6.79
2022-10-13T19:56:38.455Z,6.73
2022-10-13T19:59:32.436Z,6.70
2022-10-13T20:02:19.417Z,6.66
2022-10-13T20:04:52.493Z,6.64
2022-10-13T20:07:40.442Z,6.60
2022-10-13T20:10:20.442Z,6.57
2022-10-13T20:13:14.437Z,6.54
2022-10-13T20:16:08.404Z,6.52
2022-10-13T20:19:11.429Z,6.49
2022-10-13T20:22:07.440Z,6.43
2022-10-13T20:24:54.443Z,6.40
2022-10-13T20:27:34.433Z,6.37
2022-10-13T20:30:36.431Z,6.35
2022-10-13T20:33:23.447Z,6.31
2022-10-13T20:35:56.504Z,6.27
2022-10-13T20:38:43.478Z,6.24
2022-10-13T20:41:32.501Z,6.19
2022-10-13T20:44:19.440Z,6.19
2022-10-13T20:46:52.585Z,6.18
2022-10-13T20:49:39.426Z,6.16
2022-10-13T20:52:12.522Z,6.15
2022-10-13T20:54:59.443Z,6.13
2022-10-13T20:57:32.521Z,6.11
2022-10-13T21:00:19.458Z,6.09
2022-10-13T21:02:53.513Z,6.04
2022-10-13T21:05:40.461Z,6.03
2022-10-13T21:08:13.512Z,5.98
2022-10-13T21:11:01.461Z,5.94
2022-10-13T21:13:41.473Z,5.93
2022-10-13T21:16:30.475Z,5.90
2022-10-13T21:19:11.465Z,5.88
2022-10-13T21:22:05.448Z,5.83
2022-10-13T21:24:59.458Z,5.80
2022-10-13T21:27:46.440Z,5.79
2022-10-13T21:30:19.549Z,5.78
2022-10-13T21:33:06.469Z,5.75
2022-10-13T21:35:41.518Z,5.75
2022-10-13T21:38:28.473Z,5.72
2022-10-13T21:41:08.464Z,5.69
2022-10-13T21:43:56.472Z,5.67
2022-10-13T21:46:41.469Z,5.67
2022-10-13T21:49:28.492Z,5.65
2022-10-13T21:52:01.538Z,5.62
2022-10-13T21:54:48.462Z,5.57
2022-10-13T21:57:21.724Z,5.54
2022-10-13T22:00:08.475Z,5.50
2022-10-13T22:02:41.616Z,5.49
2022-10-13T22:05:29.464Z,5.48
2022-10-13T22:08:02.540Z,5.47
2022-10-13T22:10:49.493Z,5.47
2022-10-13T22:13:22.580Z,5.44
2022-10-13T22:16:25.514Z,5.40
2022-10-13T22:19:00.556Z,5.40
2022-10-13T22:21:50.493Z,5.37
2022-10-13T22:24:26.560Z,5.31
2022-10-13T22:27:13.468Z,5.30
2022-10-13T22:29:53.485Z,5.29
2022-10-13T22:32:40.478Z,5.22
2022-10-13T22:35:20.524Z,5.20
2022-10-13T22:38:14.488Z,5.15
2022-10-13T22:41:08.496Z,5.14
2022-10-13T22:43:56.500Z,5.13
2022-10-13T22:46:40.494Z,5.10
2022-10-13T22:49:34.505Z,5.06
2022-10-13T22:52:28.518Z,5.05
2022-10-13T22:55:22.520Z,5.02
2022-10-13T22:58:09.485Z,4.97
2022-10-13T23:00:50.518Z,4.94
2022-10-13T23:03:44.568Z,4.95
2022-10-13T23:06:44.502Z,4.92
2022-10-13T23:09:38.492Z,4.91
2022-10-13T23:12:25.489Z,4.88
2022-10-13T23:14:58.766Z,4.86
2022-10-13T23:17:45.497Z,4.85
2022-10-13T23:20:25.517Z,4.85
2022-10-13T23:23:19.499Z,4.86
2022-10-13T23:26:14.507Z,4.84
2022-10-13T23:28:48.671Z,4.80
2022-10-13T23:31:35.506Z,4.81
2022-10-13T23:34:15.527Z,4.75
2022-10-13T23:37:02.496Z,4.73
2022-10-13T23:39:35.713Z,4.74
2022-10-13T23:42:22.527Z,4.71
2022-10-13T23:44:55.591Z,4.69
2022-10-13T23:47:42.521Z,4.70
2022-10-13T23:50:16.580Z,4.69
2022-10-13T23:53:03.529Z,4.67
2022-10-13T23:55:36.594Z,4.63
2022-10-13T23:58:23.509Z,4.63
